Time;durP1;ratioP1;P1;durP2;ratioP2;P2;SDS_P1;SDS_P2;PMS_P1;PMS_P2;Temp;Humidity;BMP_temperature;BMP_pressure;BME280_temperature;BME280_humidity;BME280_pressure;Samples;Min_cycle;Max_cycle;Signal;HPM_P1;HPM_P2
2022/03/08 00:01:33;;;;;;;10.82;6.15;;;;;;;;;;5068034;28;20085;-69
2022/03/08 00:03:59;;;;;;;12.55;6.93;;;;;;;;;;5059106;28;20029;-68
2022/03/08 00:06:26;;;;;;;14.10;6.47;;;;;;;;;;5067645;28;20025;-67
2022/03/08 00:08:52;;;;;;;11.15;6.38;;;;;;;;;;5062095;28;20044;-67
2022/03/08 00:11:18;;;;;;;14.85;7.22;;;;;;;;;;5059836;28;20029;-67
2022/03/08 00:13:44;;;;;;;11.43;6.10;;;;;;;;;;5068881;28;20516;-67
2022/03/08 00:16:11;;;;;;;9.57;6.38;;;;;;;;;;5056269;28;20027;-67
2022/03/08 00:18:38;;;;;;;11.65;6.15;;;;;;;;;;5065076;28;20606;-67
2022/03/08 00:21:05;;;;;;;11.27;6.43;;;;;;;;;;5045697;28;20487;-68
2022/03/08 00:23:31;;;;;;;14.02;6.93;;;;;;;;;;5057284;28;20040;-67
2022/03/08 00:25:59;;;;;;;10.45;6.32;;;;;;;;;;5068989;28;20056;-67
2022/03/08 00:28:25;;;;;;;26.13;11.07;;;;;;;;;;5058288;28;20024;-68
2022/03/08 00:30:51;;;;;;;14.55;8.07;;;;;;;;;;5062945;28;20375;-67
2022/03/08 00:33:17;;;;;;;13.98;7.93;;;;;;;;;;5065189;28;20021;-66
2022/03/08 00:35:43;;;;;;;18.98;9.52;;;;;;;;;;5055758;28;20025;-67
2022/03/08 00:38:09;;;;;;;17.13;8.57;;;;;;;;;;5055641;28;20063;-67
2022/03/08 00:40:35;;;;;;;14.25;8.63;;;;;;;;;;5065136;28;20048;-68
2022/03/08 00:43:01;;;;;;;18.50;9.60;;;;;;;;;;5062744;28;20024;-67
2022/03/08 00:45:28;;;;;;;17.88;8.23;;;;;;;;;;5057874;28;20075;-68
2022/03/08 00:47:54;;;;;;;15.50;8.05;;;;;;;;;;5069806;28;20474;-67
2022/03/08 00:50:22;;;;;;;15.52;8.40;;;;;;;;;;5067073;28;20040;-67
2022/03/08 00:52:49;;;;;;;16.27;8.25;;;;;;;;;;5060716;28;20025;-67
2022/03/08 00:55:15;;;;;;;14.73;8.48;;;;;;;;;;5059275;28;20025;-67
2022/03/08 00:57:42;;;;;;;22.40;10.07;;;;;;;;;;5068281;28;20364;-69
2022/03/08 01:00:09;;;;;;;16.27;8.52;;;;;;;;;;5055025;28;20021;-67
2022/03/08 01:02:35;;;;;;;18.17;8.32;;;;;;;;;;5069052;28;20486;-67
2022/03/08 01:05:01;;;;;;;14.75;9.00;;;;;;;;;;5071301;28;20039;-67
2022/03/08 01:07:27;;;;;;;22.02;9.27;;;;;;;;;;5071068;28;20119;-67
2022/03/08 01:09:53;;;;;;;17.48;8.55;;;;;;;;;;5070068;28;20509;-66
2022/03/08 01:12:19;;;;;;;17.83;8.65;;;;;;;;;;5056413;28;20099;-67
2022/03/08 01:14:45;;;;;;;19.55;10.02;;;;;;;;;;5062965;28;20525;-67
2022/03/08 01:17:11;;;;;;;17.63;7.22;;;;;;;;;;5063600;28;20040;-67
2022/03/08 01:19:37;;;;;;;16.23;9.32;;;;;;;;;;5055911;28;20021;-68
2022/03/08 01:22:03;;;;;;;14.45;7.88;;;;;;;;;;5068338;28;20038;-68
2022/03/08 01:24:30;;;;;;;14.85;7.63;;;;;;;;;;5057721;28;20029;-68
2022/03/08 01:26:56;;;;;;;17.90;7.63;;;;;;;;;;5061624;28;20032;-67
2022/03/08 01:29:23;;;;;;;14.75;7.28;;;;;;;;;;5065069;28;20032;-67
2022/03/08 01:31:49;;;;;;;13.68;7.40;;;;;;;;;;5054693;28;20486;-67
2022/03/08 01:34:15;;;;;;;16.00;7.68;;;;;;;;;;5066713;28;20024;-68
2022/03/08 01:36:41;;;;;;;18.45;8.88;;;;;;;;;;5059098;28;20032;-68
2022/03/08 01:39:07;;;;;;;16.52;8.25;;;;;;;;;;5059864;28;20041;-67
2022/03/08 01:41:33;;;;;;;16.45;8.40;;;;;;;;;;5066718;28;20074;-68
2022/03/08 01:43:59;;;;;;;14.77;7.00;;;;;;;;;;5036697;28;20033;-66
2022/03/08 01:46:25;;;;;;;12.80;7.40;;;;;;;;;;5065637;28;20025;-67
2022/03/08 01:48:51;;;;;;;14.68;7.18;;;;;;;;;;5067568;28;20028;-68
2022/03/08 01:51:17;;;;;;;14.82;6.95;;;;;;;;;;5058311;28;20119;-68
2022/03/08 01:53:44;;;;;;;14.85;7.15;;;;;;;;;;5067508;28;20027;-68
2022/03/08 01:56:10;;;;;;;14.40;8.07;;;;;;;;;;5054746;28;20023;-68
2022/03/08 01:58:37;;;;;;;21.90;9.80;;;;;;;;;;5063973;28;20096;-68
2022/03/08 02:01:03;;;;;;;23.10;10.60;;;;;;;;;;5062151;28;20082;-67
2022/03/08 02:03:29;;;;;;;27.40;11.15;;;;;;;;;;5067413;28;20035;-68
2022/03/08 02:05:55;;;;;;;28.02;10.95;;;;;;;;;;5071070;28;20032;-68
2022/03/08 02:08:21;;;;;;;21.60;10.60;;;;;;;;;;5074332;28;20505;-66
2022/03/08 02:10:47;;;;;;;22.15;10.73;;;;;;;;;;5068624;28;20029;-66
2022/03/08 02:13:13;;;;;;;23.25;10.50;;;;;;;;;;5074672;28;20036;-67
2022/03/08 02:15:39;;;;;;;17.17;8.73;;;;;;;;;;5059019;28;20478;-67
2022/03/08 02:18:05;;;;;;;23.20;10.32;;;;;;;;;;5074100;28;20021;-67
2022/03/08 02:20:31;;;;;;;17.52;8.82;;;;;;;;;;5050265;28;20029;-66
2022/03/08 02:22:57;;;;;;;14.68;7.90;;;;;;;;;;5064720;28;20031;-67
2022/03/08 02:25:23;;;;;;;15.90;7.78;;;;;;;;;;5061355;28;20041;-68
2022/03/08 02:27:51;;;;;;;14.93;7.70;;;;;;;;;;5071529;28;20060;-67
2022/03/08 02:30:17;;;;;;;15.70;8.32;;;;;;;;;;5059139;28;20028;-68
2022/03/08 02:32:44;;;;;;;13.38;7.38;;;;;;;;;;5048072;28;20075;-68
2022/03/08 02:35:11;;;;;;;15.25;8.10;;;;;;;;;;5066585;28;20478;-68
2022/03/08 02:37:41;;;;;;;15.05;7.43;;;;;;;;;;5059130;28;20051;-66
2022/03/08 02:40:09;;;;;;;12.07;7.57;;;;;;;;;;5053014;28;20066;-67
2022/03/08 02:42:35;;;;;;;16.05;8.45;;;;;;;;;;5061656;28;20052;-67
2022/03/08 02:45:01;;;;;;;15.65;8.52;;;;;;;;;;5064361;28;20071;-68
2022/03/08 02:47:27;;;;;;;17.02;8.57;;;;;;;;;;5068636;28;20024;-67
2022/03/08 02:49:53;;;;;;;15.80;8.45;;;;;;;;;;5058163;28;20082;-67
2022/03/08 02:52:19;;;;;;;13.88;8.32;;;;;;;;;;5069426;28;20020;-70
2022/03/08 02:54:45;;;;;;;12.95;7.53;;;;;;;;;;5062679;28;20100;-70
2022/03/08 02:57:11;;;;;;;14.82;8.07;;;;;;;;;;5062264;28;20510;-67
2022/03/08 02:59:36;;;;;;;19.85;9.13;;;;;;;;;;5069778;28;20032;-67
2022/03/08 03:02:03;;;;;;;15.70;8.07;;;;;;;;;;5057943;28;20035;-67
2022/03/08 03:04:29;;;;;;;18.85;9.90;;;;;;;;;;5060339;28;20024;-68
2022/03/08 03:06:55;;;;;;;19.80;9.55;;;;;;;;;;5063998;28;20123;-68
2022/03/08 03:09:21;;;;;;;15.63;8.10;;;;;;;;;;5038727;22;20099;-69
2022/03/08 03:11:47;;;;;;;17.45;7.88;;;;;;;;;;5013898;28;20037;-69
2022/03/08 03:14:13;;;;;;;18.35;10.15;;;;;;;;;;5013697;28;20022;-69
2022/03/08 03:16:39;;;;;;;23.52;10.00;;;;;;;;;;5014145;28;20046;-68
2022/03/08 03:19:05;;;;;;;14.73;8.52;;;;;;;;;;5014117;28;20065;-69
2022/03/08 03:21:31;;;;;;;20.83;8.50;;;;;;;;;;5013938;28;20030;-68
2022/03/08 03:23:57;;;;;;;15.68;8.25;;;;;;;;;;5013794;28;20100;-69
2022/03/08 03:26:23;;;;;;;16.42;9.25;;;;;;;;;;5013760;28;20054;-69
2022/03/08 03:28:50;;;;;;;18.77;9.05;;;;;;;;;;5013860;28;20054;-69
2022/03/08 03:31:16;;;;;;;19.60;10.57;;;;;;;;;;5013800;28;20328;-69
2022/03/08 03:33:42;;;;;;;18.48;8.75;;;;;;;;;;5013690;28;20049;-70
2022/03/08 03:36:08;;;;;;;17.00;8.55;;;;;;;;;;5013722;28;20026;-69
2022/03/08 03:38:34;;;;;;;14.68;9.15;;;;;;;;;;5013685;28;20032;-70
2022/03/08 03:41:00;;;;;;;22.98;9.30;;;;;;;;;;5013700;28;20064;-70
2022/03/08 03:43:26;;;;;;;16.85;7.70;;;;;;;;;;5013842;28;20094;-69
2022/03/08 03:45:52;;;;;;;14.65;7.97;;;;;;;;;;5013792;28;20403;-70
2022/03/08 03:48:18;;;;;;;16.83;7.70;;;;;;;;;;5013413;28;20112;-70
2022/03/08 03:50:44;;;;;;;19.60;8.35;;;;;;;;;;5013450;28;20409;-70
2022/03/08 03:53:09;;;;;;;14.93;7.82;;;;;;;;;;5013049;28;20030;-69
2022/03/08 03:55:35;;;;;;;13.60;7.65;;;;;;;;;;5013321;28;20026;-70
2022/03/08 03:58:01;;;;;;;15.57;7.88;;;;;;;;;;5013194;28;20028;-70
2022/03/08 04:00:28;;;;;;;12.70;7.43;;;;;;;;;;5013270;28;20397;-70
2022/03/08 04:02:54;;;;;;;15.85;7.32;;;;;;;;;;5007567;28;20151;-69
2022/03/08 04:05:20;;;;;;;17.02;8.57;;;;;;;;;;4999056;28;20038;-70
2022/03/08 04:07:46;;;;;;;15.55;8.20;;;;;;;;;;5009731;28;20072;-69
2022/03/08 04:10:13;;;;;;;18.63;7.78;;;;;;;;;;5013003;28;20030;-69
2022/03/08 04:12:39;;;;;;;13.40;7.97;;;;;;;;;;5013346;28;20037;-69
2022/03/08 04:15:06;;;;;;;14.32;7.47;;;;;;;;;;5013246;28;20388;-69
2022/03/08 04:17:32;;;;;;;18.10;8.85;;;;;;;;;;5013090;28;20021;-69
2022/03/08 04:19:58;;;;;;;13.27;7.22;;;;;;;;;;5011099;28;20033;-70
2022/03/08 04:22:24;;;;;;;19.80;9.40;;;;;;;;;;4999031;28;20038;-69
2022/03/08 04:24:50;;;;;;;13.25;7.80;;;;;;;;;;5013321;28;20084;-69
2022/03/08 04:27:16;;;;;;;16.00;8.13;;;;;;;;;;5013399;28;20026;-68
2022/03/08 04:29:42;;;;;;;16.30;10.15;;;;;;;;;;4994407;28;20092;-69
2022/03/08 04:32:08;;;;;;;17.95;10.00;;;;;;;;;;5012834;28;20030;-69
2022/03/08 04:34:34;;;;;;;18.35;10.13;;;;;;;;;;5012605;28;20395;-69
2022/03/08 04:37:00;;;;;;;16.40;9.50;;;;;;;;;;5012766;28;20101;-69
2022/03/08 04:39:26;;;;;;;19.90;9.93;;;;;;;;;;5012527;28;20105;-69
2022/03/08 04:41:52;;;;;;;17.30;9.38;;;;;;;;;;5012594;28;20037;-69
2022/03/08 04:44:18;;;;;;;20.70;10.35;;;;;;;;;;4994909;28;20266;-69
2022/03/08 04:46:44;;;;;;;20.20;10.40;;;;;;;;;;5012967;28;20049;-69
2022/03/08 04:49:10;;;;;;;17.00;9.98;;;;;;;;;;5012495;28;20034;-69
2022/03/08 04:51:36;;;;;;;22.13;9.80;;;;;;;;;;5012334;28;20021;-69
2022/03/08 04:54:02;;;;;;;19.25;9.73;;;;;;;;;;5012212;28;20028;-69
2022/03/08 04:56:27;;;;;;;18.13;10.55;;;;;;;;;;5012342;28;20495;-69
2022/03/08 04:58:56;;;;;;;17.55;9.73;;;;;;;;;;5012092;28;20018;-69
2022/03/08 05:01:22;;;;;;;23.40;10.80;;;;;;;;;;5012348;28;20026;-69
2022/03/08 05:03:49;;;;;;;18.45;9.15;;;;;;;;;;4998730;28;20108;-69
2022/03/08 05:06:15;;;;;;;21.52;10.02;;;;;;;;;;5012183;28;20421;-69
2022/03/08 05:08:41;;;;;;;15.98;9.32;;;;;;;;;;5011847;28;20053;-69
2022/03/08 05:11:07;;;;;;;21.00;10.32;;;;;;;;;;5011741;28;20030;-70
2022/03/08 05:13:33;;;;;;;16.67;9.43;;;;;;;;;;5011922;28;20026;-69
2022/03/08 05:15:59;;;;;;;21.35;9.75;;;;;;;;;;5011902;28;20480;-69
2022/03/08 05:18:25;;;;;;;18.10;8.98;;;;;;;;;;5012095;28;20129;-69
2022/03/08 05:20:51;;;;;;;18.67;9.25;;;;;;;;;;5012121;28;20025;-69
2022/03/08 05:23:18;;;;;;;22.73;10.18;;;;;;;;;;5011536;28;20400;-69
2022/03/08 05:25:45;;;;;;;18.92;9.27;;;;;;;;;;5011859;28;20112;-70
2022/03/08 05:28:11;;;;;;;18.65;9.65;;;;;;;;;;5011572;28;20022;-69
2022/03/08 05:30:37;;;;;;;16.75;9.80;;;;;;;;;;5011677;28;20033;-69
2022/03/08 05:33:03;;;;;;;15.50;8.57;;;;;;;;;;5011466;28;20030;-69
2022/03/08 05:35:29;;;;;;;17.25;9.60;;;;;;;;;;5011591;28;20034;-68
2022/03/08 05:37:55;;;;;;;15.85;8.95;;;;;;;;;;5011522;28;20029;-69
2022/03/08 05:40:21;;;;;;;20.45;10.50;;;;;;;;;;5011616;28;20365;-69
2022/03/08 05:42:47;;;;;;;19.73;9.52;;;;;;;;;;5014384;28;20025;-69
2022/03/08 05:45:13;;;;;;;17.08;9.45;;;;;;;;;;5015773;28;20128;-70
2022/03/08 05:47:40;;;;;;;26.98;11.77;;;;;;;;;;5015566;28;20494;-68
2022/03/08 05:50:06;;;;;;;25.88;12.30;;;;;;;;;;5015388;28;20022;-69
2022/03/08 05:52:33;;;;;;;23.20;13.10;;;;;;;;;;5015663;28;20057;-71
2022/03/08 05:54:59;;;;;;;30.73;14.73;;;;;;;;;;5015316;28;20084;-68
2022/03/08 05:57:25;;;;;;;28.17;14.27;;;;;;;;;;5015535;28;20026;-70
2022/03/08 05:59:51;;;;;;;30.42;12.52;;;;;;;;;;5018335;28;20037;-70
2022/03/08 06:02:23;;;;;;;23.30;11.95;;;;;;;;;;5022074;28;20014;-70
2022/03/08 06:04:49;;;;;;;26.58;14.40;;;;;;;;;;5023995;28;20025;-70
2022/03/08 06:07:15;;;;;;;28.33;13.95;;;;;;;;;;5022628;28;20022;-69
2022/03/08 06:09:41;;;;;;;23.17;12.05;;;;;;;;;;5030733;28;20087;-71
2022/03/08 06:12:07;;;;;;;21.35;9.57;;;;;;;;;;5015621;28;20026;-71
2022/03/08 06:14:33;;;;;;;15.60;8.00;;;;;;;;;;5014941;28;20112;-69
2022/03/08 06:16:59;;;;;;;12.77;7.10;;;;;;;;;;5019812;28;20090;-70
2022/03/08 06:19:25;;;;;;;10.80;7.20;;;;;;;;;;4997181;28;20013;-70
2022/03/08 06:21:52;;;;;;;11.90;7.78;;;;;;;;;;5015009;28;20521;-70
2022/03/08 06:24:18;;;;;;;23.02;7.38;;;;;;;;;;5014457;28;20033;-70
2022/03/08 06:26:44;;;;;;;9.50;6.47;;;;;;;;;;5005260;28;20022;-71
2022/03/08 06:29:10;;;;;;;10.63;6.47;;;;;;;;;;5014726;28;20042;-70
2022/03/08 06:31:36;;;;;;;10.88;6.53;;;;;;;;;;5014471;28;20026;-70
2022/03/08 06:34:02;;;;;;;10.88;7.00;;;;;;;;;;5017126;28;20026;-70
2022/03/08 06:36:32;;;;;;;13.63;7.63;;;;;;;;;;5010463;28;20029;-70
2022/03/08 06:38:58;;;;;;;10.57;6.60;;;;;;;;;;4996731;28;20026;-69
2022/03/08 06:41:26;;;;;;;12.10;7.55;;;;;;;;;;5014465;28;20030;-69
2022/03/08 06:43:51;;;;;;;14.98;8.38;;;;;;;;;;5014272;28;20021;-70
2022/03/08 06:46:18;;;;;;;13.30;8.32;;;;;;;;;;5014745;28;20048;-69
2022/03/08 06:48:43;;;;;;;12.05;7.85;;;;;;;;;;5014593;28;20080;-70
2022/03/08 06:51:09;;;;;;;12.50;8.20;;;;;;;;;;5014305;28;20018;-70
2022/03/08 06:53:35;;;;;;;12.63;7.57;;;;;;;;;;4996177;28;20325;-70
2022/03/08 06:56:02;;;;;;;19.17;8.90;;;;;;;;;;5014290;28;20032;-70
2022/03/08 06:58:28;;;;;;;12.65;7.60;;;;;;;;;;4996793;28;20873;-70
2022/03/08 07:00:54;;;;;;;12.40;7.82;;;;;;;;;;5015236;28;20021;-70
2022/03/08 07:03:20;;;;;;;13.98;8.57;;;;;;;;;;5004491;28;20476;-70
2022/03/08 07:05:46;;;;;;;16.13;7.60;;;;;;;;;;5011355;28;20079;-72
2022/03/08 07:08:12;;;;;;;15.52;8.43;;;;;;;;;;5016439;28;20080;-71
2022/03/08 07:10:38;;;;;;;15.27;8.65;;;;;;;;;;5013996;28;20034;-70
2022/03/08 07:13:04;;;;;;;13.73;7.82;;;;;;;;;;5014121;28;20488;-70
2022/03/08 07:15:30;;;;;;;17.95;8.82;;;;;;;;;;5013821;28;20018;-70
2022/03/08 07:17:56;;;;;;;27.27;8.40;;;;;;;;;;5014070;28;20376;-70
2022/03/08 07:20:23;;;;;;;14.60;8.00;;;;;;;;;;5013920;28;20025;-70
2022/03/08 07:22:49;;;;;;;12.63;8.00;;;;;;;;;;5013968;28;20030;-69
2022/03/08 07:25:16;;;;;;;17.35;8.35;;;;;;;;;;5006430;28;20011;-72
2022/03/08 07:27:42;;;;;;;12.43;7.65;;;;;;;;;;5008778;28;20502;-73
2022/03/08 07:30:09;;;;;;;14.38;7.95;;;;;;;;;;5013809;28;20117;-69
2022/03/08 07:32:35;;;;;;;15.07;8.18;;;;;;;;;;5013897;28;20488;-73
2022/03/08 07:35:01;;;;;;;19.83;9.23;;;;;;;;;;5013834;28;20029;-72
2022/03/08 07:37:27;;;;;;;16.15;8.55;;;;;;;;;;5013926;28;20387;-73
2022/03/08 07:39:54;;;;;;;14.38;8.90;;;;;;;;;;5017744;28;20399;-73
2022/03/08 07:42:20;;;;;;;19.65;8.93;;;;;;;;;;5013516;28;20030;-72
2022/03/08 07:44:46;;;;;;;24.85;9.60;;;;;;;;;;5013617;28;20400;-72
2022/03/08 07:47:12;;;;;;;14.05;9.15;;;;;;;;;;5013256;28;20053;-73
2022/03/08 07:49:38;;;;;;;14.32;8.50;;;;;;;;;;5013171;28;20045;-72
2022/03/08 07:52:05;;;;;;;13.70;9.23;;;;;;;;;;5013099;28;20050;-72
2022/03/08 07:54:31;;;;;;;13.57;9.57;;;;;;;;;;5013875;28;20033;-72
2022/03/08 07:56:57;;;;;;;17.17;9.18;;;;;;;;;;5014102;28;20029;-70
2022/03/08 07:59:23;;;;;;;14.02;8.75;;;;;;;;;;5014094;28;20018;-72
2022/03/08 08:01:49;;;;;;;14.50;9.50;;;;;;;;;;4996695;28;20057;-71
2022/03/08 08:04:15;;;;;;;22.85;11.55;;;;;;;;;;5012943;28;20068;-73
2022/03/08 08:06:41;;;;;;;17.52;10.88;;;;;;;;;;5014657;28;20034;-71
2022/03/08 08:09:07;;;;;;;15.95;10.43;;;;;;;;;;5014489;28;20048;-72
2022/03/08 08:11:33;;;;;;;18.92;11.27;;;;;;;;;;5013463;28;20034;-72
2022/03/08 08:13:59;;;;;;;20.10;11.63;;;;;;;;;;5013558;28;20029;-72
2022/03/08 08:16:25;;;;;;;25.63;11.88;;;;;;;;;;4996293;28;20018;-73
2022/03/08 08:18:51;;;;;;;20.20;11.63;;;;;;;;;;5013310;28;20033;-71
2022/03/08 08:21:17;;;;;;;18.00;10.48;;;;;;;;;;5013277;28;20393;-71
2022/03/08 08:23:43;;;;;;;20.80;10.65;;;;;;;;;;5012851;28;20037;-71
2022/03/08 08:26:09;;;;;;;21.73;11.57;;;;;;;;;;5012829;28;20026;-71
2022/03/08 08:28:35;;;;;;;16.05;10.32;;;;;;;;;;5012940;28;20044;-72
2022/03/08 08:31:01;;;;;;;17.17;10.35;;;;;;;;;;5013369;28;20472;-72
2022/03/08 08:33:27;;;;;;;21.58;9.82;;;;;;;;;;5013303;28;20084;-71
2022/03/08 08:35:55;;;;;;;18.60;10.65;;;;;;;;;;5013466;28;20396;-72
2022/03/08 08:38:21;;;;;;;18.27;10.50;;;;;;;;;;5013661;28;20081;-71
2022/03/08 08:40:47;;;;;;;18.45;8.88;;;;;;;;;;4995988;28;20033;-72
2022/03/08 08:43:13;;;;;;;15.70;8.57;;;;;;;;;;5013835;28;20026;-73
2022/03/08 08:45:39;;;;;;;20.23;10.55;;;;;;;;;;4995792;28;20030;-72
2022/03/08 08:48:06;;;;;;;13.80;9.02;;;;;;;;;;5013227;28;20052;-72
2022/03/08 08:50:32;;;;;;;14.65;8.57;;;;;;;;;;5013130;28;20026;-72
2022/03/08 08:52:59;;;;;;;14.88;9.15;;;;;;;;;;4995118;28;20029;-71
2022/03/08 08:55:26;;;;;;;13.80;8.00;;;;;;;;;;5012704;28;20137;-72
2022/03/08 08:57:52;;;;;;;13.25;8.07;;;;;;;;;;5012683;28;20054;-71
2022/03/08 09:00:18;;;;;;;13.38;7.78;;;;;;;;;;5012061;28;20427;-72
2022/03/08 09:02:45;;;;;;;16.10;7.90;;;;;;;;;;4994389;28;20396;-72
2022/03/08 09:05:12;;;;;;;12.93;7.43;;;;;;;;;;5012364;28;20022;-71
2022/03/08 09:07:38;;;;;;;14.52;7.82;;;;;;;;;;5012314;28;20435;-73
2022/03/08 09:10:04;;;;;;;12.38;7.53;;;;;;;;;;5091319;22;20528;-68
2022/03/08 09:12:30;;;;;;;10.48;7.30;;;;;;;;;;5034488;28;20091;-67
2022/03/08 09:14:56;;;;;;;12.40;7.55;;;;;;;;;;5044147;28;20049;-66
2022/03/08 09:17:22;;;;;;;16.88;8.00;;;;;;;;;;5042304;28;20025;-68
2022/03/08 09:19:48;;;;;;;13.10;7.07;;;;;;;;;;5037027;28;20065;-68
2022/03/08 09:22:14;;;;;;;11.13;6.85;;;;;;;;;;5048261;28;20029;-67
2022/03/08 09:24:41;;;;;;;12.68;6.80;;;;;;;;;;5036579;28;20032;-67
2022/03/08 09:27:07;;;;;;;11.88;6.50;;;;;;;;;;5042527;28;20026;-67
2022/03/08 09:29:33;;;;;;;13.65;6.97;;;;;;;;;;5043493;28;20025;-68
2022/03/08 09:31:59;;;;;;;14.45;7.50;;;;;;;;;;5035366;28;20116;-67
2022/03/08 09:34:25;;;;;;;14.88;7.43;;;;;;;;;;5047392;28;20025;-65
2022/03/08 09:36:51;;;;;;;11.13;6.95;;;;;;;;;;5020254;28;20061;-67
2022/03/08 09:39:17;;;;;;;9.40;6.13;;;;;;;;;;5041551;28;20489;-68
2022/03/08 09:41:43;;;;;;;9.07;6.30;;;;;;;;;;5037314;28;20029;-67
2022/03/08 09:44:13;;;;;;;11.90;7.10;;;;;;;;;;5027638;28;20442;-70
2022/03/08 09:46:40;;;;;;;11.68;7.22;;;;;;;;;;5036076;28;20027;-69
2022/03/08 09:49:06;;;;;;;11.63;5.90;;;;;;;;;;5031403;28;20033;-69
2022/03/08 09:51:32;;;;;;;9.80;6.47;;;;;;;;;;5035512;28;20080;-68
2022/03/08 09:53:59;;;;;;;13.60;6.10;;;;;;;;;;5033953;28;20028;-69
2022/03/08 09:56:25;;;;;;;11.55;6.47;;;;;;;;;;5044704;28;20548;-67
2022/03/08 09:58:51;;;;;;;10.45;6.20;;;;;;;;;;5040598;28;20117;-69
2022/03/08 10:01:17;;;;;;;12.70;6.15;;;;;;;;;;5029162;28;20041;-69
2022/03/08 10:03:46;;;;;;;9.30;6.00;;;;;;;;;;5026346;28;20033;-69
2022/03/08 10:06:12;;;;;;;12.90;6.43;;;;;;;;;;5042202;28;20032;-70
2022/03/08 10:08:38;;;;;;;9.70;6.22;;;;;;;;;;5042895;28;20033;-67
2022/03/08 10:11:11;;;;;;;10.13;5.97;;;;;;;;;;5042433;28;20067;-69
2022/03/08 10:13:41;;;;;;;13.90;5.70;;;;;;;;;;5034852;28;20264;-68
2022/03/08 10:16:12;;;;;;;9.57;5.70;;;;;;;;;;5018317;28;20024;-67
2022/03/08 10:18:42;;;;;;;10.27;5.88;;;;;;;;;;5030047;28;20391;-69
2022/03/08 10:21:44;;;;;;;11.43;5.72;;;;;;;;;;5019142;28;20552;-68
2022/03/08 10:24:15;;;;;;;10.38;4.82;;;;;;;;;;4939989;29;20069;-68
2022/03/08 10:26:47;;;;;;;9.57;5.13;;;;;;;;;;5008641;28;20071;-66
2022/03/08 10:29:13;;;;;;;9.75;5.50;;;;;;;;;;5046541;28;20154;-67
2022/03/08 10:31:39;;;;;;;12.40;5.05;;;;;;;;;;5045330;28;20028;-67
2022/03/08 10:34:06;;;;;;;9.93;5.10;;;;;;;;;;5048369;28;20454;-69
2022/03/08 10:36:35;;;;;;;10.18;5.18;;;;;;;;;;5048772;28;20060;-69
2022/03/08 10:39:05;;;;;;;20.20;9.02;;;;;;;;;;5030901;28;20017;-69
2022/03/08 10:41:31;;;;;;;12.35;5.55;;;;;;;;;;5022832;28;20033;-69
2022/03/08 10:43:57;;;;;;;9.85;5.05;;;;;;;;;;5047485;28;20029;-69
2022/03/08 10:46:24;;;;;;;8.02;4.55;;;;;;;;;;5048797;28;20025;-69
2022/03/08 10:48:50;;;;;;;446.90;230.82;;;;;;;;;;5048641;28;20027;-67
2022/03/08 10:51:17;;;;;;;35.78;20.20;;;;;;;;;;5046461;28;20491;-69
2022/03/08 10:53:43;;;;;;;91.75;39.67;;;;;;;;;;5037770;28;20415;-69
2022/03/08 10:56:10;;;;;;;17.27;9.02;;;;;;;;;;5039119;28;20014;-68
2022/03/08 10:58:48;;;;;;;12.50;5.32;;;;;;;;;;5023411;28;20020;-70
2022/03/08 11:01:14;;;;;;;6.45;4.57;;;;;;;;;;5040423;28;20029;-69
2022/03/08 11:03:40;;;;;;;13.18;5.25;;;;;;;;;;5044894;28;20184;-71
2022/03/08 11:06:07;;;;;;;9.77;5.22;;;;;;;;;;5038260;28;20026;-69
2022/03/08 11:08:33;;;;;;;7.70;4.88;;;;;;;;;;5044462;28;20051;-68
2022/03/08 11:10:59;;;;;;;11.90;4.90;;;;;;;;;;5046654;28;20025;-69
2022/03/08 11:13:25;;;;;;;13.45;5.15;;;;;;;;;;5040439;28;20096;-70
2022/03/08 11:15:51;;;;;;;8.15;4.38;;;;;;;;;;5044793;28;20403;-69
2022/03/08 11:18:17;;;;;;;126.30;55.22;;;;;;;;;;5042120;28;20022;-70
2022/03/08 11:20:45;;;;;;;10.93;6.38;;;;;;;;;;5042479;28;20026;-70
2022/03/08 11:23:11;;;;;;;10.88;4.63;;;;;;;;;;5046349;28;20055;-69
2022/03/08 11:25:41;;;;;;;9.25;4.82;;;;;;;;;;5041830;28;20396;-70
2022/03/08 11:28:08;;;;;;;10.75;4.78;;;;;;;;;;5028343;28;20013;-70
2022/03/08 11:30:42;;;;;;;11.55;4.80;;;;;;;;;;5043652;28;20026;-71
2022/03/08 11:33:31;;;;;;;11.18;4.53;;;;;;;;;;5028177;28;20529;-70
2022/03/08 11:36:06;;;;;;;12.50;5.43;;;;;;;;;;5001778;28;20044;-69
2022/03/08 11:38:32;;;;;;;13.00;5.88;;;;;;;;;;5034419;28;20027;-67
2022/03/08 11:40:58;;;;;;;8.70;4.80;;;;;;;;;;5039427;28;20115;-68
2022/03/08 11:43:43;;;;;;;97.68;42.72;;;;;;;;;;5046386;28;20079;-70
2022/03/08 11:46:15;;;;;;;58.85;26.75;;;;;;;;;;5041691;28;20052;-68
2022/03/08 11:48:51;;;;;;;19.45;9.48;;;;;;;;;;5043311;28;20554;-70
2022/03/08 11:51:17;;;;;;;11.40;6.18;;;;;;;;;;5039290;28;20024;-68
2022/03/08 11:53:47;;;;;;;7.22;4.10;;;;;;;;;;5042752;28;20017;-69
2022/03/08 11:56:16;;;;;;;3.28;1.27;;;;;;;;;;5044082;28;20013;-70
2022/03/08 11:58:47;;;;;;;2.53;1.27;;;;;;;;;;5043438;28;20033;-69
2022/03/08 12:01:23;;;;;;;3.47;1.02;;;;;;;;;;5039739;28;20488;-68
2022/03/08 12:03:57;;;;;;;3.08;1.45;;;;;;;;;;5043592;28;20080;-70
2022/03/08 12:06:30;;;;;;;4.88;2.33;;;;;;;;;;5041508;28;20092;-71
2022/03/08 12:09:00;;;;;;;2.95;1.30;;;;;;;;;;5039994;28;20467;-70
2022/03/08 12:11:26;;;;;;;3.00;1.23;;;;;;;;;;5030926;28;20028;-68
2022/03/08 12:14:25;;;;;;;3.00;1.20;;;;;;;;;;5049567;28;20067;-68
2022/03/08 12:16:53;;;;;;;2.90;1.17;;;;;;;;;;4997569;28;20029;-64
2022/03/08 12:19:31;;;;;;;2.35;1.10;;;;;;;;;;5040099;28;20029;-70
2022/03/08 12:21:57;;;;;;;7.72;1.95;;;;;;;;;;5049391;28;20099;-68
2022/03/08 12:24:24;;;;;;;2.58;1.35;;;;;;;;;;5037219;28;20017;-70
2022/03/08 12:27:00;;;;;;;3.45;1.27;;;;;;;;;;5044156;28;20030;-71
2022/03/08 12:29:28;;;;;;;4.57;1.30;;;;;;;;;;5046851;28;20033;-70
2022/03/08 12:34:47;;;;;;;3.53;1.05;;;;;;;;;;5047437;28;20590;-69
2022/03/08 12:37:18;;;;;;;1.48;1.05;;;;;;;;;;5044231;28;20048;-69
2022/03/08 12:39:47;;;;;;;2.00;1.20;;;;;;;;;;5018269;28;20087;-70
2022/03/08 12:42:17;;;;;;;1.90;0.82;;;;;;;;;;5049089;28;20041;-68
2022/03/08 12:44:55;;;;;;;10.70;5.47;;;;;;;;;;5039680;28;20036;-66
2022/03/08 12:47:21;;;;;;;4.78;1.00;;;;;;;;;;5021582;28;20025;-69
2022/03/08 12:49:47;;;;;;;2.72;2.00;;;;;;;;;;5048553;28;20556;-70
2022/03/08 12:52:14;;;;;;;26.70;12.77;;;;;;;;;;5021826;28;20028;-67
2022/03/08 12:54:42;;;;;;;54.00;26.08;;;;;;;;;;5044815;28;20117;-68
2022/03/08 12:57:10;;;;;;;5.80;1.80;;;;;;;;;;5043043;28;20017;-68
2022/03/08 12:59:43;;;;;;;3.85;1.48;;;;;;;;;;5037002;28;20064;-66
2022/03/08 13:02:09;;;;;;;16.10;8.10;;;;;;;;;;5048182;28;20029;-70
2022/03/08 13:04:35;;;;;;;3.42;1.98;;;;;;;;;;5038121;28;20033;-70
2022/03/08 13:07:08;;;;;;;1.98;1.08;;;;;;;;;;5042090;28;20077;-70
2022/03/08 13:09:54;;;;;;;1.42;0.90;;;;;;;;;;5046109;28;20044;-70
2022/03/08 13:12:21;;;;;;;0.95;0.65;;;;;;;;;;5020710;28;20104;-71
2022/03/08 13:15:07;;;;;;;3.08;1.17;;;;;;;;;;5043211;28;20030;-68
2022/03/08 13:17:33;;;;;;;3.17;1.00;;;;;;;;;;5046181;28;20055;-69
2022/03/08 13:19:59;;;;;;;1.98;1.27;;;;;;;;;;5034843;28;20025;-68
2022/03/08 13:22:25;;;;;;;66.60;28.33;;;;;;;;;;5046719;28;20468;-68
2022/03/08 13:25:08;;;;;;;1.42;0.70;;;;;;;;;;5022645;28;20433;-69
2022/03/08 13:27:49;;;;;;;27.45;12.32;;;;;;;;;;5037398;28;20056;-69
2022/03/08 13:30:16;;;;;;;2.75;0.90;;;;;;;;;;5018939;28;20079;-68
2022/03/08 13:32:41;;;;;;;3.13;1.15;;;;;;;;;;5043937;28;20033;-69
2022/03/08 13:35:09;;;;;;;1.48;0.82;;;;;;;;;;5024642;28;20487;-70
2022/03/08 13:37:46;;;;;;;76.47;32.33;;;;;;;;;;5036625;28;20025;-70
2022/03/08 13:40:24;;;;;;;69.97;29.63;;;;;;;;;;5047667;28;20092;-70
2022/03/08 13:42:50;;;;;;;26.10;11.95;;;;;;;;;;5039456;28;20060;-67
2022/03/08 13:45:16;;;;;;;23.38;11.02;;;;;;;;;;5039022;28;20037;-69
2022/03/08 13:47:42;;;;;;;17.63;7.68;;;;;;;;;;5046859;28;20029;-70
2022/03/08 13:50:08;;;;;;;102.85;43.65;;;;;;;;;;5034557;28;20483;-68
2022/03/08 13:52:34;;;;;;;61.22;27.52;;;;;;;;;;5048177;28;20036;-67
2022/03/08 13:55:00;;;;;;;26.92;11.82;;;;;;;;;;5040721;28;20030;-67
2022/03/08 13:57:26;;;;;;;3.28;1.33;;;;;;;;;;5030033;28;20083;-69
2022/03/08 13:59:53;;;;;;;21.17;10.27;;;;;;;;;;5032768;28;20119;-67
2022/03/08 14:02:20;;;;;;;20.83;9.23;;;;;;;;;;5037526;28;20107;-67
2022/03/08 14:04:47;;;;;;;13.63;6.97;;;;;;;;;;5046587;28;20044;-66
2022/03/08 14:07:19;;;;;;;36.20;14.15;;;;;;;;;;5046563;28;20506;-67
2022/03/08 14:09:55;;;;;;;38.00;16.38;;;;;;;;;;5038593;28;20045;-65
2022/03/08 14:12:21;;;;;;;1.92;1.33;;;;;;;;;;5024165;28;20100;-66
2022/03/08 14:15:01;;;;;;;2.00;0.73;;;;;;;;;;5046653;28;20137;-69
2022/03/08 14:17:30;;;;;;;3.72;1.98;;;;;;;;;;5048897;28;20123;-69
2022/03/08 14:19:56;;;;;;;3.65;1.30;;;;;;;;;;5020119;28;20022;-67
2022/03/08 14:22:22;;;;;;;2.22;0.82;;;;;;;;;;5050148;28;20388;-68
2022/03/08 14:24:59;;;;;;;3.03;1.00;;;;;;;;;;5042647;28;20025;-66
2022/03/08 14:27:25;;;;;;;1.90;1.20;;;;;;;;;;5040978;28;20037;-67
2022/03/08 14:30:04;;;;;;;8.88;1.38;;;;;;;;;;5050944;28;20259;-69
2022/03/08 14:32:38;;;;;;;10.02;4.82;;;;;;;;;;5022434;28;20037;-68